Henderson, TN

7:43 AM CST on December 29, 2014 (GMT -0600)
APRSWXNET Henderson TN US | Change Station
CLOSE
Current Station
Personal Weather Station
Location: Henderson, TN
Elevation: 459 ft
Nearby Weather Stations

Elev 459 ft 35.43 °N, 88.65 °W | Updated 29 minutes ago

Overcast
Overcast
37 °F
Feels Like 37 °F
N
3
Wind Variable Wind from ESE
Gusts 8.0 mph

Today
High -- | Low -- °F
--% Chance of Precip.
Yesterday
High -- | Low -- °F
Precip. -- in
7:03 AM 4:50 PM
First Quarter, 59% visible
Pressure 30.21 in
Visibility 10.0 miles
Clouds Overcast 900 ft
Windchill 37 °F
Dew Point 34 °F
Humidity 90%
Rainfall 0.11 in
Snow Depth Not available.
UV 0 out of 12
Pollen .10 out of 12
Air Quality Not available.
Flu Activity Not available.
METAR KMKL 291253Z AUTO 01008KT 10SM -RA OVC009 02/00 A3020 RMK AO2 RAB44 SLP229 P0000 T00170000

More Conditions Fewer Conditions

Pressure 30.21 in
Visibility 10.0 miles
Clouds Overcast 900 ft
Windchill 37 °F
Dew Point 34 °F
Humidity 90%
Rainfall 0.11 in
Snow Depth Not available.
UV 0 out of 12
Pollen .10 out of 12
Air Quality Not available.
Flu Activity Not available.
METAR KMKL 291253Z AUTO 01008KT 10SM -RA OVC009 02/00 A3020 RMK AO2 RAB44 SLP229 P0000 T00170000

More Conditions Fewer Conditions

10-Day Weather Forecast

Almanac

Astronomy

Dec. 29, 2014 Rise Set
Actual Time
Civil Twilight
Nautical Twilight
Astronomical Twilight
Moon
Length of Visible Light
Length of Day
Tomorrow will be .
, % of the Moon is Illuminated

Today's Extremes

State Highs State Lows

Community

WunderPhotos

Upload Photos

1,781,586 photos uploaded!

WunderBlogs® & News

Nearby

Air Quality

  Air Quality AQ Index Pollutant
Not available.

Snow Depth

Station Depth Elevation

Earthquake Activity

City Distance Mag. Time & Date
Minimum magnitude displayed is 2.5.

Coastal Water Temperatures

Place Temperature

Nearby Weather Stations